Startpagina
METAR-TAF:

METAR-TAF

Vliegvelden :

Abidjan, Ivoorkust

Luchthaven Port Bouet

breedte: 05-15N, lengte: 003-56W, hoogte: 7 m

Actueel weer

Dit bericht is 36 minuten geleden gemaakt, om 02:30 UTC
Wind 5 kt uit het westzuidwesten
Temperatuur 23°C
Vochtigheid 94%
Druk 1013 hPa
Zicht: 8000 m
Weinig wolken op 1200 ft

METAR: DIAP 240230Z 25005KT 8000 FEW012 23/22 Q1013 NOSIG

Tijdstip: 03:06 (03:06 UTC)

Verwachting

Dit bericht is 4 uur en het 6 minuten geleden gemaakt, om 23:00 UTC
Verwachting geldig van 24 om 00 UTC tot 25 om 06 UTC
Wind 4 kt uit het zuidwesten
Zicht: 8000 m
Verspreide wolken op 1200 ft
Tijdelijke
van 24 om 04 UTC tot 24 om 10 UTC
Gebroken wolken op 1200 ft
Tijdelijke
van 25 om 00 UTC tot 25 om 06 UTC
Zicht: 4000 m
Gebroken wolken op 1200 ft
motregen

TAF: DIAP 232300Z 2400/2506 22004KT 8000 SCT012 TEMPO 2404/2410 BKN012 TEMPO 2500/2506 4000 DZ BKN012

Waarnemingen en weersverwachtingen van meer dan 4000 vliegvelden (METAR en TAF).

De beschikbare stations zijn de gele en rode punten op de kaart.

Ga met uw muis naar het station om de naam te zien.

Klik dan om waarnemingen en weersverwachtingen te zien.

kaart wijzigen: klik op de groene knoppen met een zwart kruis om in te zoomen, op de groene knop met een streepje om uit te zoomen of op de groene pijlen voor aangrenzende kaarten.


METAR-TAF: